Destinations Madeira Airport

Madeira Airport (LPMA / FNC)

Flights to Madeira Airport

Flight number From ETE Dispatch
SPY-2252 EGFF Cardiff International Airport 04:00
SPY-2472 EGPH Edinburgh Airport 04:00
SPY-424 EHGG Groningen Airport Eelde 04:40

Flights from Madeira Airport

Flight number To ETE Dispatch
SPY-2253 EGFF Cardiff International Airport 04:00
SPY-2473 EGPH Edinburgh Airport 04:00
SPY-425 EHGG Groningen Airport Eelde 04:10
About

Madeira Airport facts

Madeira Airport is located in Funchal at an elevation of 58.5 meters or 192 feet.

Currently, Speedy Airlines serves 6 flights to and from Madeira Airport.

Detailed airport info

Route map

Weather

Current weather

METAR

METAR

Metar data retrieved Sunday, 21 July 2024 at 18:55 UTC

LPMA 211830Z 02012G24KT 330V050 9999 SCT013 25/20 Q1018 RMK WIND POS ROSARIO 36007KT 320V060 RWY05 02012KT 330V060 RWY23 01015KT 310V040
Wind Temperature
12/24 kt 25c